createdAt,value
2023-03-25T00:01:23.646Z,31.8
2023-03-25T00:03:28.825Z,31.79
2023-03-25T00:05:33.791Z,31.84
2023-03-25T00:07:38.860Z,31.79
2023-03-25T00:09:43.848Z,31.78
2023-03-25T00:11:48.868Z,31.75
2023-03-25T00:13:53.864Z,31.82
2023-03-25T00:15:58.876Z,31.77
2023-03-25T00:18:04.042Z,31.76
2023-03-25T00:20:09.228Z,31.72
2023-03-25T00:22:14.272Z,31.73
2023-03-25T00:24:19.306Z,31.64
2023-03-25T00:26:24.396Z,31.57
2023-03-25T00:28:29.522Z,31.52
2023-03-25T00:30:34.684Z,31.49
2023-03-25T00:32:39.905Z,31.41
2023-03-25T00:34:45.000Z,31.38
2023-03-25T00:36:49.934Z,31.34
2023-03-25T00:38:54.984Z,31.3
2023-03-25T00:41:00.027Z,31.35
2023-03-25T00:43:05.003Z,31.31
2023-03-25T00:45:09.963Z,31.28
2023-03-25T00:47:14.955Z,31.25
2023-03-25T00:49:19.954Z,31.3
2023-03-25T00:51:24.939Z,31.28
2023-03-25T00:53:29.926Z,31.3
2023-03-25T00:55:34.898Z,31.25
2023-03-25T00:57:39.875Z,31.2
2023-03-25T00:59:44.905Z,31.2
2023-03-25T01:01:50.231Z,31.12
2023-03-25T01:03:55.234Z,31.14
2023-03-25T01:06:00.299Z,31.12
2023-03-25T01:08:05.272Z,31.13
2023-03-25T01:10:10.288Z,31.1
2023-03-25T01:12:15.332Z,31.13
2023-03-25T01:14:20.318Z,31.07
2023-03-25T01:16:25.441Z,31.07
2023-03-25T01:18:30.427Z,31.02
2023-03-25T01:20:35.398Z,31.02
2023-03-25T01:22:40.362Z,31.03
2023-03-25T01:24:45.368Z,31.01
2023-03-25T01:26:50.376Z,30.97
2023-03-25T01:28:55.341Z,31
2023-03-25T01:31:00.490Z,31.01
2023-03-25T01:33:05.716Z,31
2023-03-25T01:35:10.715Z,31.08
2023-03-25T01:37:15.749Z,31.15
2023-03-25T01:39:20.789Z,31.18
2023-03-25T01:41:27.777Z,31.2
2023-03-25T01:43:38.238Z,31.36
2023-03-25T01:45:43.207Z,31.36
2023-03-25T01:47:48.355Z,31.38
2023-03-25T01:49:53.470Z,31.3
2023-03-25T01:51:58.477Z,31.35
2023-03-25T01:54:03.574Z,31.28
2023-03-25T01:56:08.552Z,31.32
2023-03-25T01:58:13.623Z,31.26
2023-03-25T02:00:18.621Z,31.36
2023-03-25T02:02:23.774Z,31.36
2023-03-25T02:04:28.824Z,31.33
2023-03-25T02:06:33.804Z,31.34
2023-03-25T02:08:38.838Z,31.37
2023-03-25T02:10:43.829Z,31.33
2023-03-25T02:12:48.986Z,31.39
2023-03-25T02:14:53.955Z,31.34
2023-03-25T02:16:58.929Z,31.36
2023-03-25T02:19:03.909Z,31.38
2023-03-25T02:21:08.877Z,31.4
2023-03-25T02:23:14.167Z,31.37
2023-03-25T02:25:19.222Z,31.4
2023-03-25T02:27:24.284Z,31.38
2023-03-25T02:29:29.358Z,31.28
2023-03-25T02:31:34.520Z,31.31
2023-03-25T02:33:39.513Z,31.37
2023-03-25T02:35:44.651Z,31.35
2023-03-25T02:37:49.624Z,31.32
2023-03-25T02:39:54.752Z,31.29
2023-03-25T02:41:59.729Z,31.29
2023-03-25T02:44:04.824Z,31.24
2023-03-25T02:46:10.138Z,31.35
2023-03-25T02:48:15.187Z,31.37
2023-03-25T02:50:20.270Z,31.32
2023-03-25T02:52:25.247Z,31.31
2023-03-25T02:54:30.282Z,31.29
2023-03-25T02:56:35.567Z,31.25
2023-03-25T02:58:40.535Z,31.25
2023-03-25T03:00:45.533Z,31.3
2023-03-25T03:02:50.933Z,31.42
2023-03-25T03:04:56.020Z,31.33
2023-03-25T03:07:01.087Z,31.33
2023-03-25T03:09:06.062Z,31.39
2023-03-25T03:11:11.074Z,31.37
2023-03-25T03:13:16.070Z,31.33
2023-03-25T03:15:21.059Z,31.36
2023-03-25T03:17:26.398Z,31.35
2023-03-25T03:19:31.589Z,31.27
2023-03-25T03:21:36.654Z,31.3
2023-03-25T03:23:41.683Z,31.27
2023-03-25T03:25:46.674Z,31.36
2023-03-25T03:27:51.677Z,31.33
2023-03-25T03:32:10.003Z,31.39
2023-03-25T03:34:15.034Z,31.39
2023-03-25T03:36:20.090Z,31.38
2023-03-25T03:38:25.188Z,31.35
2023-03-25T03:40:30.188Z,31.32
2023-03-25T03:42:35.183Z,31.34
2023-03-25T03:44:40.196Z,31.29
2023-03-25T03:46:45.413Z,31.32
2023-03-25T03:48:50.497Z,31.32
2023-03-25T03:50:55.467Z,31.36
2023-03-25T03:53:02.999Z,31.4
2023-03-25T03:55:08.055Z,31.38
2023-03-25T03:57:13.157Z,31.42
2023-03-25T03:59:18.156Z,31.41
2023-03-25T04:01:23.130Z,31.43
2023-03-25T04:03:28.513Z,31.47
2023-03-25T04:05:33.653Z,31.55
2023-03-25T04:07:38.682Z,31.54
2023-03-25T04:09:43.858Z,31.5
2023-03-25T04:11:48.840Z,31.56
2023-03-25T04:13:53.876Z,31.52
2023-03-25T04:15:58.955Z,31.58
2023-03-25T04:18:04.256Z,31.59
2023-03-25T04:20:09.253Z,31.59
2023-03-25T04:22:14.239Z,31.62
2023-03-25T04:24:19.537Z,31.63
2023-03-25T04:26:24.573Z,31.54
2023-03-25T04:28:29.547Z,31.45
2023-03-25T04:30:34.562Z,31.54
2023-03-25T04:32:39.693Z,31.46
2023-03-25T04:34:44.759Z,31.43
2023-03-25T04:36:49.751Z,31.41
2023-03-25T04:38:54.700Z,31.35
2023-03-25T04:40:59.998Z,31.34
2023-03-25T04:43:05.134Z,31.3
2023-03-25T04:45:10.110Z,31.31
2023-03-25T04:47:15.117Z,31.28
2023-03-25T04:49:20.165Z,31.42
2023-03-25T04:51:25.150Z,31.29
2023-03-25T04:53:30.296Z,31.35
2023-03-25T04:55:35.320Z,31.33
2023-03-25T04:57:40.348Z,31.31
2023-03-25T04:59:45.406Z,31.3
2023-03-25T05:01:50.533Z,31.27
2023-03-25T05:03:55.585Z,31.3
2023-03-25T05:06:00.671Z,31.29
2023-03-25T05:08:05.722Z,31.24
2023-03-25T05:10:10.675Z,31.24
2023-03-25T05:12:15.657Z,31.19
2023-03-25T05:14:20.662Z,31.19
2023-03-25T05:16:25.760Z,31.19
2023-03-25T05:18:30.811Z,31.17
2023-03-25T05:20:35.820Z,31.17
2023-03-25T05:22:40.867Z,31.25
2023-03-25T05:24:45.837Z,31.2
2023-03-25T05:26:50.836Z,31.25
2023-03-25T05:28:55.820Z,31.26
2023-03-25T05:31:00.808Z,31.24
2023-03-25T05:33:05.979Z,31.24
2023-03-25T05:35:10.986Z,31.22
2023-03-25T05:37:16.031Z,31.23
2023-03-25T05:39:21.004Z,31.23
2023-03-25T05:41:26.107Z,31.2
2023-03-25T05:43:31.079Z,31.2
2023-03-25T05:45:36.262Z,31.19
2023-03-25T05:47:41.555Z,31.18
2023-03-25T05:49:46.670Z,31.23
2023-03-25T05:51:51.638Z,31.19
2023-03-25T05:53:56.652Z,31.24
2023-03-25T05:56:01.753Z,31.24
2023-03-25T05:58:06.805Z,31.28
2023-03-25T06:00:11.803Z,31.24
2023-03-25T06:02:17.113Z,31.28
2023-03-25T06:04:22.280Z,31.37
2023-03-25T06:06:27.282Z,31.38
2023-03-25T06:08:32.438Z,31.37
2023-03-25T06:10:37.478Z,31.38
2023-03-25T06:12:42.464Z,31.4
2023-03-25T06:14:47.444Z,31.55
2023-03-25T06:16:52.504Z,31.5
2023-03-25T06:18:57.687Z,31.48
2023-03-25T06:21:02.685Z,31.61
2023-03-25T06:23:07.673Z,31.61
2023-03-25T06:25:12.706Z,31.64
2023-03-25T06:27:18.047Z,31.77
2023-03-25T06:29:23.135Z,31.67
2023-03-25T06:31:28.517Z,31.73
2023-03-25T06:33:46.553Z,31.68
2023-03-25T06:35:52.279Z,31.79
2023-03-25T06:37:57.476Z,31.67
2023-03-25T06:40:02.566Z,31.73
2023-03-25T06:42:07.568Z,31.82
2023-03-25T06:44:12.588Z,31.8
2023-03-25T06:46:17.761Z,31.8
2023-03-25T06:48:22.734Z,31.8
2023-03-25T06:50:27.803Z,31.84
2023-03-25T06:52:32.788Z,31.92
2023-03-25T06:54:37.908Z,32.06
2023-03-25T06:56:43.205Z,32.08
2023-03-25T06:58:48.241Z,32.07
2023-03-25T07:00:53.242Z,32.18
2023-03-25T07:02:58.424Z,32.12
2023-03-25T07:05:03.824Z,32.17
2023-03-25T07:07:08.877Z,32.29
2023-03-25T07:09:13.838Z,32.25
2023-03-25T07:11:18.839Z,32.3
2023-03-25T07:13:23.981Z,32.41
2023-03-25T07:15:28.956Z,32.43
2023-03-25T07:17:34.188Z,32.48
2023-03-25T07:19:39.277Z,32.42
2023-03-25T07:21:44.288Z,32.49
2023-03-25T07:23:49.300Z,32.49
2023-03-25T07:25:54.789Z,32.49
2023-03-25T07:27:59.793Z,32.54
2023-03-25T07:30:04.840Z,32.62
2023-03-25T07:32:09.899Z,32.61
2023-03-25T07:34:14.948Z,32.69
2023-03-25T07:36:19.934Z,32.69
2023-03-25T07:38:24.968Z,32.72
2023-03-25T07:40:30.170Z,32.76
2023-03-25T07:42:35.218Z,33.87
2023-03-25T07:44:40.181Z,34.38
2023-03-25T07:46:45.194Z,34.33
2023-03-25T07:48:50.203Z,34.31
2023-03-25T07:50:55.241Z,34.87
2023-03-25T07:53:00.310Z,34.66
2023-03-25T07:55:05.423Z,34.89
2023-03-25T07:57:10.785Z,35.26
2023-03-25T07:59:15.769Z,35.36
2023-03-25T08:01:20.772Z,35.4
2023-03-25T08:03:26.028Z,35.47
2023-03-25T08:05:31.114Z,35.35
2023-03-25T08:07:36.110Z,35.08
2023-03-25T08:09:41.136Z,35.28
2023-03-25T08:11:46.162Z,35.27
2023-03-25T08:13:51.178Z,35.18
2023-03-25T08:15:56.428Z,35.59
2023-03-25T08:18:01.608Z,35.23
2023-03-25T08:20:06.610Z,35.27
2023-03-25T08:22:11.615Z,35.65
2023-03-25T08:24:16.688Z,35.62
2023-03-25T08:26:21.686Z,35.81
2023-03-25T08:28:26.695Z,35.81
2023-03-25T08:30:32.208Z,35.44
2023-03-25T08:32:37.370Z,35.65
2023-03-25T08:34:42.731Z,35.56
2023-03-25T08:36:47.703Z,35.53
2023-03-25T08:38:52.785Z,35.24
2023-03-25T08:40:57.804Z,35.39
2023-03-25T08:43:02.840Z,35.46
2023-03-25T08:45:07.838Z,35.45
2023-03-25T08:47:12.835Z,35.49
2023-03-25T08:49:17.849Z,35.5
2023-03-25T08:51:23.018Z,35.4
2023-03-25T08:53:28.017Z,34.99
2023-03-25T08:55:33.033Z,34.63
2023-03-25T08:57:37.967Z,34.45
2023-03-25T08:59:42.920Z,34.3
2023-03-25T09:01:48.085Z,34.37
2023-03-25T09:03:53.103Z,34.2
2023-03-25T09:05:58.050Z,33.96
2023-03-25T09:08:03.031Z,33.66
2023-03-25T09:10:08.070Z,33.63
2023-03-25T09:12:13.072Z,33.5
2023-03-25T09:14:18.163Z,33.49
2023-03-25T09:16:23.365Z,33.6
2023-03-25T09:18:28.403Z,33.5
2023-03-25T09:20:33.447Z,33.52
2023-03-25T09:22:38.543Z,33.59
2023-03-25T09:24:43.511Z,33.74
2023-03-25T09:26:48.535Z,33.64
2023-03-25T09:28:53.503Z,34
2023-03-25T09:30:58.772Z,34.41
2023-03-25T09:33:04.166Z,34.55
2023-03-25T09:35:09.209Z,34.72
2023-03-25T09:37:14.224Z,34.79
2023-03-25T09:39:19.211Z,35.04
2023-03-25T09:41:24.194Z,34.57
2023-03-25T09:43:29.180Z,34.69
2023-03-25T09:45:34.182Z,34.67
2023-03-25T09:47:39.365Z,34.68
2023-03-25T09:49:44.434Z,34.74
2023-03-25T09:51:49.527Z,34.71
2023-03-25T09:53:54.545Z,34.69
2023-03-25T09:55:59.596Z,34.64
2023-03-25T09:58:04.590Z,34.64
2023-03-25T10:00:09.576Z,34.62
2023-03-25T10:02:14.764Z,34.61
2023-03-25T10:04:19.791Z,34.63
2023-03-25T10:06:24.817Z,34.51
2023-03-25T10:08:29.891Z,34.55
2023-03-25T10:10:35.306Z,34.55
2023-03-25T10:12:40.322Z,34.48
2023-03-25T10:14:45.348Z,34.44
2023-03-25T10:16:50.393Z,34.38
2023-03-25T10:18:55.404Z,34.42
2023-03-25T10:21:00.458Z,34.43
2023-03-25T10:23:05.494Z,34.41
2023-03-25T10:25:10.544Z,34.36
2023-03-25T10:27:15.666Z,34.29
2023-03-25T10:29:20.774Z,34.29
2023-03-25T10:31:25.907Z,34.4
2023-03-25T10:33:30.940Z,34.39
2023-03-25T10:35:36.227Z,34.37
2023-03-25T10:37:41.299Z,34.37
2023-03-25T10:39:46.342Z,34.43
2023-03-25T10:41:51.404Z,34.4
2023-03-25T10:43:56.426Z,34.3
2023-03-25T10:46:01.560Z,34.43
2023-03-25T10:48:07.136Z,34.4
2023-03-25T10:50:12.193Z,34.47
2023-03-25T10:52:17.202Z,34.39
2023-03-25T10:54:22.217Z,34.49
2023-03-25T10:56:27.170Z,34.35
2023-03-25T10:58:32.200Z,34.53
2023-03-25T11:00:37.209Z,34.44
2023-03-25T11:02:42.641Z,34.59
2023-03-25T11:04:47.738Z,34.49
2023-03-25T11:06:52.745Z,34.45
2023-03-25T11:08:57.799Z,34.36
2023-03-25T11:11:05.752Z,34.39
2023-03-25T11:13:10.739Z,34.51
2023-03-25T11:15:15.851Z,34.49
2023-03-25T11:17:20.920Z,34.31
2023-03-25T11:19:25.980Z,34.33
2023-03-25T11:21:31.000Z,34.37
2023-03-25T11:23:36.024Z,34.3
2023-03-25T11:25:41.125Z,34.36
2023-03-25T11:27:46.109Z,34.29
2023-03-25T11:29:51.113Z,34.35
2023-03-25T11:31:56.128Z,34.42
2023-03-25T11:34:01.151Z,34.41
2023-03-25T11:36:06.353Z,34.51
2023-03-25T11:38:11.381Z,34.54
2023-03-25T11:40:16.717Z,34.75
2023-03-25T11:42:21.826Z,34.76
2023-03-25T11:44:26.801Z,34.72
2023-03-25T11:46:32.069Z,34.66
2023-03-25T11:48:37.173Z,34.65
2023-03-25T11:50:42.163Z,34.61
2023-03-25T11:52:47.191Z,34.56
2023-03-25T11:54:52.321Z,34.75
2023-03-25T11:56:57.562Z,34.58
2023-03-25T11:59:02.772Z,34.51
2023-03-25T12:01:07.875Z,34.55
2023-03-25T12:03:13.263Z,34.47
2023-03-25T12:05:18.459Z,34.54
2023-03-25T12:07:23.568Z,34.6
2023-03-25T12:09:32.057Z,34.44
2023-03-25T12:11:37.049Z,34.55
2023-03-25T12:13:42.117Z,34.33
2023-03-25T12:15:47.231Z,34.48
2023-03-25T12:17:52.396Z,34.48
2023-03-25T12:19:57.392Z,34.45
2023-03-25T12:22:02.505Z,34.43
2023-03-25T12:24:07.478Z,34.37
2023-03-25T12:26:12.491Z,34.33
2023-03-25T12:28:17.502Z,34.34
2023-03-25T12:30:22.528Z,34.35
2023-03-25T12:32:27.607Z,34.36
2023-03-25T12:34:32.727Z,34.41
2023-03-25T12:36:37.730Z,34.32
2023-03-25T12:38:42.906Z,34.5
2023-03-25T12:40:47.949Z,34.5
2023-03-25T12:42:52.999Z,34.38
2023-03-25T12:44:57.987Z,34.44
2023-03-25T12:47:03.052Z,34.37
2023-03-25T12:49:08.093Z,34.44
2023-03-25T12:51:13.077Z,34.5
2023-03-25T12:53:18.145Z,34.42
2023-03-25T12:55:23.255Z,34.47
2023-03-25T12:57:28.311Z,34.46
2023-03-25T12:59:33.334Z,34.52
2023-03-25T13:01:38.516Z,34.62
2023-03-25T13:03:43.603Z,34.69
2023-03-25T13:05:48.705Z,34.78
2023-03-25T13:07:53.828Z,34.76
2023-03-25T13:09:59.049Z,34.7
2023-03-25T13:12:04.197Z,34.75
2023-03-25T13:14:09.204Z,34.8
2023-03-25T13:16:14.409Z,34.78
2023-03-25T13:18:19.569Z,34.8
2023-03-25T13:20:24.575Z,34.84
2023-03-25T13:22:29.597Z,34.9
2023-03-25T13:24:34.671Z,35.04
2023-03-25T13:26:43.278Z,35.25
2023-03-25T13:28:48.297Z,35.24
2023-03-25T13:30:53.884Z,35.17
2023-03-25T13:32:59.175Z,34.41
2023-03-25T13:35:04.320Z,33.79
2023-03-25T13:37:09.399Z,33.41
2023-03-25T13:39:14.422Z,32.84
2023-03-25T13:41:22.079Z,32.89
2023-03-25T13:43:27.212Z,32.66
2023-03-25T13:45:32.208Z,32.47
2023-03-25T13:47:37.401Z,32.18
2023-03-25T13:49:42.452Z,31.91
2023-03-25T13:51:48.064Z,32.13
2023-03-25T13:53:53.132Z,31.63
2023-03-25T13:55:58.199Z,31.93
2023-03-25T13:58:03.207Z,31.78
2023-03-25T14:00:08.299Z,31.94
2023-03-25T14:02:13.321Z,32.44
2023-03-25T14:04:18.358Z,32.03
2023-03-25T14:06:23.491Z,32.36
2023-03-25T14:08:28.502Z,32.27
2023-03-25T14:10:33.596Z,32.38
2023-03-25T14:12:38.782Z,32.38
2023-03-25T14:14:43.747Z,32.4
2023-03-25T14:16:48.847Z,32.35
2023-03-25T14:18:53.803Z,32.08
2023-03-25T14:21:01.500Z,32.23
2023-03-25T14:23:06.467Z,31.99
2023-03-25T14:25:11.453Z,31.99
2023-03-25T14:27:16.408Z,31.78
2023-03-25T14:29:21.420Z,31.57
2023-03-25T14:31:26.519Z,31.63
2023-03-25T14:33:31.577Z,31.6
2023-03-25T14:35:37.157Z,31.66
2023-03-25T14:37:42.211Z,31.32
2023-03-25T14:39:47.257Z,31.47
2023-03-25T14:41:52.306Z,31.64
2023-03-25T14:43:57.379Z,31.75
2023-03-25T14:46:02.555Z,31.96
2023-03-25T14:48:26.856Z,31.72
2023-03-25T14:50:31.962Z,31.66
2023-03-25T14:52:37.039Z,31.66
2023-03-25T14:54:42.166Z,31.55
2023-03-25T14:56:47.384Z,31.46
2023-03-25T14:58:52.436Z,31.42
2023-03-25T15:00:57.494Z,31.24
2023-03-25T15:03:03.407Z,31.33
2023-03-25T15:05:08.610Z,31.2
2023-03-25T15:07:13.704Z,31.23
2023-03-25T15:09:18.683Z,31.17
2023-03-25T15:11:23.690Z,30.88
2023-03-25T15:13:28.730Z,30.64
2023-03-25T15:15:33.752Z,30.72
2023-03-25T15:17:38.923Z,30.91
2023-03-25T15:19:43.933Z,31.09
2023-03-25T15:21:48.943Z,31.19
2023-03-25T15:23:54.000Z,31.35
2023-03-25T15:25:59.027Z,31.82
2023-03-25T15:28:04.137Z,31.75
2023-03-25T15:30:09.411Z,31.96
2023-03-25T15:32:14.529Z,31.8
2023-03-25T15:34:19.580Z,31.88
2023-03-25T15:36:24.593Z,31.96
2023-03-25T15:38:29.769Z,32.06
2023-03-25T15:40:34.796Z,32.08
2023-03-25T15:42:39.806Z,32.02
2023-03-25T15:44:44.773Z,32.12
2023-03-25T15:46:49.748Z,32.08
2023-03-25T15:48:54.684Z,32.09
2023-03-25T15:50:59.756Z,32.16
2023-03-25T15:53:04.748Z,32.17
2023-03-25T15:55:09.786Z,32.16
2023-03-25T15:57:15.019Z,32.1
2023-03-25T15:59:20.055Z,32.17
2023-03-25T16:01:25.219Z,32.1
2023-03-25T16:03:30.870Z,32.17
2023-03-25T16:05:35.986Z,32.23
2023-03-25T16:07:40.922Z,32.21
2023-03-25T16:09:45.938Z,32.83
2023-03-25T16:11:50.944Z,32.66
2023-03-25T16:13:55.954Z,33
2023-03-25T16:16:01.036Z,33.16
2023-03-25T16:18:06.223Z,33.36
2023-03-25T16:20:11.243Z,33.8
2023-03-25T16:22:16.236Z,33.64
2023-03-25T16:24:21.224Z,33.57
2023-03-25T16:26:26.255Z,33.69
2023-03-25T16:28:31.219Z,33.66
2023-03-25T16:30:36.419Z,33.83
2023-03-25T16:32:41.520Z,34.28
2023-03-25T16:34:46.567Z,34.66
2023-03-25T16:36:51.652Z,34.59
2023-03-25T16:38:56.640Z,34.5
2023-03-25T16:41:02.000Z,32.64
2023-03-25T16:43:07.173Z,32.15
2023-03-25T16:45:12.136Z,32.31
2023-03-25T16:47:17.246Z,32.78
2023-03-25T16:49:22.294Z,32.37
2023-03-25T16:51:27.273Z,32.33
2023-03-25T16:53:32.308Z,32.13
2023-03-25T16:55:37.467Z,32.63
2023-03-25T16:57:42.430Z,32.69
2023-03-25T16:59:47.430Z,32.49
2023-03-25T17:01:52.596Z,32.25
2023-03-25T17:03:57.647Z,32.98
2023-03-25T17:06:02.716Z,33.17
2023-03-25T17:08:07.708Z,33.73
2023-03-25T17:10:12.738Z,33.9
2023-03-25T17:12:17.754Z,33.93
2023-03-25T17:14:22.850Z,33.9
2023-03-25T17:16:28.685Z,33.85
2023-03-25T17:18:33.795Z,33.75
2023-03-25T17:20:38.924Z,33.79
2023-03-25T17:22:43.952Z,33.89
2023-03-25T17:24:49.039Z,33.92
2023-03-25T17:26:54.036Z,34.26
2023-03-25T17:28:59.047Z,34.37
2023-03-25T17:31:04.368Z,34.4
2023-03-25T17:33:09.476Z,34.32
2023-03-25T17:35:14.841Z,34.37
2023-03-25T17:37:19.980Z,34.56
2023-03-25T17:39:25.030Z,34.5
2023-03-25T17:41:30.181Z,34.66
2023-03-25T17:43:35.303Z,34.76
2023-03-25T17:45:40.383Z,34.62
2023-03-25T17:47:45.565Z,34.43
2023-03-25T17:49:50.584Z,34.5
2023-03-25T17:51:55.643Z,34.65
2023-03-25T17:54:00.671Z,34.52
2023-03-25T17:56:05.732Z,34.69
2023-03-25T17:58:10.800Z,34.81
2023-03-25T18:00:16.020Z,34.92
2023-03-25T18:02:21.027Z,35.12
2023-03-25T18:04:26.019Z,34.88
2023-03-25T18:06:31.043Z,35
2023-03-25T18:08:36.147Z,34.61
2023-03-25T18:10:41.184Z,34.76
2023-03-25T18:12:46.178Z,34.81
2023-03-25T18:14:51.277Z,35.14
2023-03-25T18:16:56.324Z,35.25
2023-03-25T18:19:01.460Z,35.3
2023-03-25T18:21:06.621Z,35.39
2023-03-25T18:23:11.630Z,35.62
2023-03-25T18:25:16.645Z,35.52
2023-03-25T18:27:43.612Z,35.7
2023-03-25T18:29:49.221Z,35.41
2023-03-25T18:31:54.589Z,35.39
2023-03-25T18:33:59.627Z,34.36
2023-03-25T18:36:04.884Z,33.42
2023-03-25T18:38:09.871Z,32.8
2023-03-25T18:40:14.872Z,34.68
2023-03-25T18:42:19.882Z,34.22
2023-03-25T18:44:24.968Z,34.56
2023-03-25T18:46:29.943Z,34.81
2023-03-25T18:48:34.928Z,34.43
2023-03-25T18:50:40.054Z,33.85
2023-03-25T18:52:45.073Z,33.78
2023-03-25T18:54:50.089Z,33.62
2023-03-25T18:56:55.301Z,33.33
2023-03-25T18:59:00.370Z,33.7
2023-03-25T19:01:05.662Z,33.64
2023-03-25T19:03:11.096Z,33.24
2023-03-25T19:05:16.357Z,33.36
2023-03-25T19:07:21.528Z,32.98
2023-03-25T19:09:26.657Z,32.79
2023-03-25T19:11:31.686Z,32.69
2023-03-25T19:13:36.823Z,32.17
2023-03-25T19:15:41.871Z,32.37
2023-03-25T19:17:47.137Z,32.28
2023-03-25T19:19:52.151Z,31.96
2023-03-25T19:21:57.185Z,31.97
2023-03-25T19:24:02.242Z,32
2023-03-25T19:26:07.237Z,31.69
2023-03-25T19:28:12.237Z,31.5
2023-03-25T19:30:17.465Z,31.43
2023-03-25T19:32:22.474Z,31.34
2023-03-25T19:34:27.533Z,31.2
2023-03-25T19:36:32.735Z,31.14
2023-03-25T19:38:37.732Z,31.13
2023-03-25T19:40:42.776Z,31.06
2023-03-25T19:42:47.776Z,31.1
2023-03-25T19:44:52.899Z,31.18
2023-03-25T19:46:57.891Z,31.4
2023-03-25T19:49:02.896Z,31.44
2023-03-25T19:51:07.947Z,31.5
2023-03-25T19:53:13.048Z,31.17
2023-03-25T19:55:18.078Z,31.17
2023-03-25T19:57:23.115Z,31.66
2023-03-25T19:59:28.136Z,31.46
2023-03-25T20:01:33.240Z,31.44
2023-03-25T20:03:38.832Z,31.72
2023-03-25T20:05:44.073Z,31.75
2023-03-25T20:07:49.114Z,31.65
2023-03-25T20:09:54.111Z,31.56
2023-03-25T20:11:59.141Z,31.71
2023-03-25T20:14:04.145Z,31.76
2023-03-25T20:16:09.482Z,31.54
2023-03-25T20:18:14.523Z,31.45
2023-03-25T20:20:19.769Z,32
2023-03-25T20:22:27.451Z,32.07
2023-03-25T20:24:32.447Z,32.17
2023-03-25T20:26:37.500Z,31.9
2023-03-25T20:28:42.632Z,31.66
2023-03-25T20:30:47.611Z,32.25
2023-03-25T20:32:52.928Z,31.71
2023-03-25T20:34:58.005Z,31.26
2023-03-25T20:37:03.039Z,31.35
2023-03-25T20:39:08.469Z,31.4
2023-03-25T20:41:13.482Z,31.24
2023-03-25T20:43:18.634Z,32.05
2023-03-25T20:45:23.661Z,31.57
2023-03-25T20:47:28.870Z,31.21
2023-03-25T20:49:33.897Z,32.09
2023-03-25T20:51:38.917Z,32.07
2023-03-25T20:53:43.887Z,32.34
2023-03-25T20:55:48.971Z,31.81
2023-03-25T20:57:53.979Z,31.79
2023-03-25T20:59:59.009Z,31.56
2023-03-25T21:02:04.196Z,31.3
2023-03-25T21:04:09.292Z,30.98
2023-03-25T21:06:29.678Z,31.05
2023-03-25T21:08:34.876Z,31.48
2023-03-25T21:10:39.871Z,31.73
2023-03-25T21:12:47.083Z,32.27
2023-03-25T21:14:52.202Z,31.95
2023-03-25T21:16:57.420Z,31.38
2023-03-25T21:19:02.434Z,31.29
2023-03-25T21:21:07.457Z,31.01
2023-03-25T21:23:12.500Z,30.71
2023-03-25T21:25:17.884Z,30.54
2023-03-25T21:27:40.131Z,30.44
2023-03-25T21:29:45.240Z,30.27
2023-03-25T21:31:50.465Z,30.3
2023-03-25T21:33:55.591Z,30.08
2023-03-25T21:36:00.791Z,29.95
2023-03-25T21:38:05.803Z,29.76
2023-03-25T21:40:11.519Z,29.93
2023-03-25T21:42:16.670Z,29.84
2023-03-25T21:44:21.763Z,29.71
2023-03-25T21:46:27.106Z,29.87
2023-03-25T21:48:32.418Z,29.9
2023-03-25T21:50:37.607Z,29.76
2023-03-25T21:52:42.659Z,29.7
2023-03-25T21:54:47.705Z,29.66
2023-03-25T21:56:52.835Z,30.05
2023-03-25T21:58:57.892Z,30.17
2023-03-25T22:01:03.118Z,30.14
2023-03-25T22:03:08.341Z,30.06
2023-03-25T22:05:13.405Z,29.8
2023-03-25T22:07:18.437Z,29.74
2023-03-25T22:09:23.515Z,29.56
2023-03-25T22:11:28.475Z,29.57
2023-03-25T22:13:33.557Z,29.48
2023-03-25T22:15:38.566Z,29.42
2023-03-25T22:17:43.746Z,29.45
2023-03-25T22:19:48.832Z,29.48
2023-03-25T22:21:53.965Z,29.43
2023-03-25T22:23:59.115Z,29.55
2023-03-25T22:26:04.174Z,29.51
2023-03-25T22:28:09.190Z,29.45
2023-03-25T22:30:14.221Z,29.37
2023-03-25T22:32:19.327Z,29.32
2023-03-25T22:34:24.308Z,29.42
2023-03-25T22:36:29.335Z,29.46
2023-03-25T22:38:34.398Z,29.38
2023-03-25T22:40:39.375Z,29.4
2023-03-25T22:42:44.428Z,29.32
2023-03-25T22:44:49.424Z,29.19
2023-03-25T22:46:54.753Z,29.28
2023-03-25T22:48:59.892Z,29.29
2023-03-25T22:51:04.983Z,29.3
2023-03-25T22:53:10.043Z,29.34
2023-03-25T22:55:15.036Z,29.25
2023-03-25T22:57:20.035Z,29.26
2023-03-25T22:59:25.044Z,29.22
2023-03-25T23:01:30.258Z,29.32
2023-03-25T23:03:35.681Z,29.24
2023-03-25T23:05:40.739Z,29.14
2023-03-25T23:07:45.742Z,29.24
2023-03-25T23:09:50.728Z,29.04
2023-03-25T23:11:55.851Z,29.08
2023-03-25T23:14:00.873Z,29.16
2023-03-25T23:16:06.042Z,29.09
2023-03-25T23:18:11.237Z,29.04
2023-03-25T23:20:16.329Z,28.96
2023-03-25T23:22:21.372Z,28.99
2023-03-25T23:24:26.433Z,29.05
2023-03-25T23:26:31.502Z,28.93
2023-03-25T23:28:36.831Z,28.81
2023-03-25T23:30:41.781Z,28.79
2023-03-25T23:32:46.982Z,28.91
2023-03-25T23:34:52.091Z,28.78
2023-03-25T23:36:57.116Z,28.91
2023-03-25T23:39:02.339Z,28.84
2023-03-25T23:41:07.504Z,28.94
2023-03-25T23:43:12.508Z,28.87
2023-03-25T23:45:17.597Z,28.95
2023-03-25T23:47:22.677Z,28.91
2023-03-25T23:49:27.799Z,29.25
2023-03-25T23:51:32.816Z,29
2023-03-25T23:53:37.817Z,28.88
2023-03-25T23:55:42.837Z,28.91
2023-03-25T23:57:47.830Z,28.97
2023-03-25T23:59:52.925Z,28.88
